sensor_id;sensor_type;location;lat;lon;timestamp;pressure;altitude;pressure_sealevel;temperature;humidity
13367;BME280;6752;52.612;13.630;2024-03-23T00:55:48;100126.88;;;9.15;100.00
13367;BME280;6752;52.612;13.630;2024-03-23T01:00:51;100127.48;;;9.17;100.00
13367;BME280;6752;52.612;13.630;2024-03-23T01:05:53;100134.00;;;8.91;100.00
13367;BME280;6752;52.612;13.630;2024-03-23T01:10:59;100118.30;;;9.05;100.00
13367;BME280;6752;52.612;13.630;2024-03-23T01:16:01;100125.77;;;9.01;100.00
13367;BME280;6752;52.612;13.630;2024-03-23T01:21:03;100120.75;;;9.01;100.00
13367;BME280;6752;52.612;13.630;2024-03-23T01:26:05;100109.92;;;9.16;100.00
13367;BME280;6752;52.612;13.630;2024-03-23T01:31:08;100097.14;;;9.29;100.00
13367;BME280;6752;52.612;13.630;2024-03-23T01:36:10;100104.91;;;9.34;100.00
13367;BME280;6752;52.612;13.630;2024-03-23T01:41:12;100100.98;;;9.30;100.00
13367;BME280;6752;52.612;13.630;2024-03-23T01:46:15;100075.09;;;9.43;100.00
13367;BME280;6752;52.612;13.630;2024-03-23T01:51:17;100063.05;;;9.35;100.00
13367;BME280;6752;52.612;13.630;2024-03-23T01:56:20;100051.96;;;9.28;100.00
13367;BME280;6752;52.612;13.630;2024-03-23T02:01:22;100038.59;;;9.41;100.00
13367;BME280;6752;52.612;13.630;2024-03-23T02:06:24;100023.48;;;9.30;100.00
13367;BME280;6752;52.612;13.630;2024-03-23T02:11:27;100028.08;;;9.21;100.00
13367;BME280;6752;52.612;13.630;2024-03-23T02:16:29;100031.08;;;9.25;100.00
13367;BME280;6752;52.612;13.630;2024-03-23T02:21:31;100027.52;;;9.34;100.00
13367;BME280;6752;52.612;13.630;2024-03-23T02:26:34;100038.36;;;9.28;100.00
13367;BME280;6752;52.612;13.630;2024-03-23T02:31:36;100031.16;;;9.28;100.00
13367;BME280;6752;52.612;13.630;2024-03-23T02:36:38;100026.34;;;9.17;100.00
13367;BME280;6752;52.612;13.630;2024-03-23T02:41:41;100017.10;;;9.12;100.00
13367;BME280;6752;52.612;13.630;2024-03-23T02:46:44;99999.92;;;8.97;100.00
13367;BME280;6752;52.612;13.630;2024-03-23T02:51:46;99985.98;;;9.17;100.00
13367;BME280;6752;52.612;13.630;2024-03-23T02:56:48;99980.59;;;9.14;100.00
13367;BME280;6752;52.612;13.630;2024-03-23T03:01:51;99974.48;;;9.10;100.00
13367;BME280;6752;52.612;13.630;2024-03-23T03:06:53;99978.25;;;9.08;100.00
13367;BME280;6752;52.612;13.630;2024-03-23T03:11:55;99980.05;;;8.81;100.00
13367;BME280;6752;52.612;13.630;2024-03-23T03:16:58;99980.73;;;8.73;100.00
13367;BME280;6752;52.612;13.630;2024-03-23T03:22:00;99973.18;;;8.79;100.00
13367;BME280;6752;52.612;13.630;2024-03-23T03:27:02;99969.13;;;8.66;100.00
13367;BME280;6752;52.612;13.630;2024-03-23T03:32:05;99970.25;;;8.68;100.00
13367;BME280;6752;52.612;13.630;2024-03-23T03:37:07;99962.38;;;8.81;100.00
13367;BME280;6752;52.612;13.630;2024-03-23T03:42:09;99953.31;;;8.69;100.00
13367;BME280;6752;52.612;13.630;2024-03-23T03:47:12;99946.61;;;8.81;100.00
13367;BME280;6752;52.612;13.630;2024-03-23T03:52:14;99943.78;;;8.97;100.00
13367;BME280;6752;52.612;13.630;2024-03-23T03:57:17;99939.20;;;8.88;100.00
13367;BME280;6752;52.612;13.630;2024-03-23T04:02:19;99933.46;;;8.69;100.00
13367;BME280;6752;52.612;13.630;2024-03-23T04:07:21;99923.93;;;8.81;100.00
13367;BME280;6752;52.612;13.630;2024-03-23T04:12:24;99929.31;;;8.84;100.00
13367;BME280;6752;52.612;13.630;2024-03-23T04:17:26;99923.14;;;8.92;100.00
13367;BME280;6752;52.612;13.630;2024-03-23T04:22:28;99923.53;;;8.87;100.00
13367;BME280;6752;52.612;13.630;2024-03-23T04:27:31;99927.42;;;8.67;100.00
13367;BME280;6752;52.612;13.630;2024-03-23T04:32:33;99927.30;;;8.52;100.00
13367;BME280;6752;52.612;13.630;2024-03-23T04:37:36;99923.39;;;8.33;100.00
13367;BME280;6752;52.612;13.630;2024-03-23T04:42:38;99913.22;;;8.25;100.00
13367;BME280;6752;52.612;13.630;2024-03-23T04:47:40;99904.14;;;8.46;100.00
13367;BME280;6752;52.612;13.630;2024-03-23T04:52:42;99901.60;;;8.27;100.00
13367;BME280;6752;52.612;13.630;2024-03-23T04:57:45;99890.52;;;8.10;100.00
13367;BME280;6752;52.612;13.630;2024-03-23T05:02:47;99895.19;;;7.99;100.00
13367;BME280;6752;52.612;13.630;2024-03-23T05:07:49;99885.16;;;8.00;100.00
13367;BME280;6752;52.612;13.630;2024-03-23T05:12:52;99874.13;;;8.11;100.00
13367;BME280;6752;52.612;13.630;2024-03-23T05:17:54;99878.83;;;8.09;100.00
13367;BME280;6752;52.612;13.630;2024-03-23T05:22:57;99871.81;;;8.11;100.00
13367;BME280;6752;52.612;13.630;2024-03-23T05:28:01;99870.69;;;8.19;100.00
13367;BME280;6752;52.612;13.630;2024-03-23T05:33:03;99866.66;;;8.03;100.00
13367;BME280;6752;52.612;13.630;2024-03-23T05:38:06;99863.07;;;8.18;100.00
13367;BME280;6752;52.612;13.630;2024-03-23T05:43:08;99864.42;;;8.18;100.00
13367;BME280;6752;52.612;13.630;2024-03-23T05:48:10;99853.67;;;8.30;100.00
13367;BME280;6752;52.612;13.630;2024-03-23T05:53:13;99856.85;;;8.14;100.00
13367;BME280;6752;52.612;13.630;2024-03-23T05:58:19;99838.38;;;8.23;100.00
13367;BME280;6752;52.612;13.630;2024-03-23T06:03:17;99828.70;;;8.30;100.00
13367;BME280;6752;52.612;13.630;2024-03-23T06:08:20;99824.33;;;8.29;100.00
13367;BME280;6752;52.612;13.630;2024-03-23T06:13:22;99830.64;;;8.23;100.00
13367;BME280;6752;52.612;13.630;2024-03-23T06:18:24;99820.34;;;8.41;100.00
13367;BME280;6752;52.612;13.630;2024-03-23T06:23:27;99807.32;;;8.46;100.00
13367;BME280;6752;52.612;13.630;2024-03-23T06:28:29;99793.88;;;8.51;100.00
13367;BME280;6752;52.612;13.630;2024-03-23T06:33:31;99788.31;;;8.55;100.00
13367;BME280;6752;52.612;13.630;2024-03-23T06:38:34;99789.67;;;8.55;100.00
13367;BME280;6752;52.612;13.630;2024-03-23T06:43:36;99791.19;;;8.66;100.00
13367;BME280;6752;52.612;13.630;2024-03-23T06:48:38;99790.66;;;8.76;100.00
13367;BME280;6752;52.612;13.630;2024-03-23T06:53:41;99774.98;;;8.60;100.00
13367;BME280;6752;52.612;13.630;2024-03-23T06:58:43;99764.61;;;8.78;100.00
13367;BME280;6752;52.612;13.630;2024-03-23T07:03:45;99765.63;;;8.86;100.00
13367;BME280;6752;52.612;13.630;2024-03-23T07:08:48;99747.61;;;8.67;100.00
13367;BME280;6752;52.612;13.630;2024-03-23T07:13:51;99757.51;;;8.61;100.00
13367;BME280;6752;52.612;13.630;2024-03-23T07:18:53;99753.81;;;8.71;100.00
13367;BME280;6752;52.612;13.630;2024-03-23T07:23:55;99736.43;;;8.60;100.00
13367;BME280;6752;52.612;13.630;2024-03-23T07:28:57;99741.56;;;8.59;100.00
13367;BME280;6752;52.612;13.630;2024-03-23T07:34:00;99743.57;;;8.49;100.00
13367;BME280;6752;52.612;13.630;2024-03-23T07:39:02;99736.30;;;8.46;100.00
13367;BME280;6752;52.612;13.630;2024-03-23T07:44:04;99733.02;;;8.80;100.00
13367;BME280;6752;52.612;13.630;2024-03-23T07:49:07;99733.31;;;8.66;100.00
13367;BME280;6752;52.612;13.630;2024-03-23T07:54:12;99732.44;;;8.39;100.00
13367;BME280;6752;52.612;13.630;2024-03-23T07:59:14;99727.19;;;8.31;100.00
13367;BME280;6752;52.612;13.630;2024-03-23T08:04:16;99727.67;;;8.10;100.00
13367;BME280;6752;52.612;13.630;2024-03-23T08:09:19;99727.47;;;7.99;100.00
13367;BME280;6752;52.612;13.630;2024-03-23T08:14:21;99719.72;;;7.75;100.00
13367;BME280;6752;52.612;13.630;2024-03-23T08:19:23;99717.65;;;7.65;100.00
13367;BME280;6752;52.612;13.630;2024-03-23T08:24:26;99712.73;;;7.55;100.00
13367;BME280;6752;52.612;13.630;2024-03-23T08:29:28;99712.09;;;7.38;100.00
13367;BME280;6752;52.612;13.630;2024-03-23T08:34:31;99698.75;;;7.36;100.00
13367;BME280;6752;52.612;13.630;2024-03-23T08:39:33;99697.17;;;7.56;100.00
13367;BME280;6752;52.612;13.630;2024-03-23T08:44:35;99696.13;;;7.76;100.00
13367;BME280;6752;52.612;13.630;2024-03-23T08:49:38;99692.28;;;7.37;100.00
13367;BME280;6752;52.612;13.630;2024-03-23T08:54:40;99690.77;;;7.42;100.00
13367;BME280;6752;52.612;13.630;2024-03-23T08:59:42;99694.27;;;7.15;100.00
13367;BME280;6752;52.612;13.630;2024-03-23T09:04:45;99702.44;;;7.08;100.00
13367;BME280;6752;52.612;13.630;2024-03-23T09:09:47;99698.89;;;7.11;100.00
13367;BME280;6752;52.612;13.630;2024-03-23T09:14:50;99713.02;;;6.60;100.00
13367;BME280;6752;52.612;13.630;2024-03-23T09:19:52;99716.54;;;6.29;100.00
13367;BME280;6752;52.612;13.630;2024-03-23T09:24:54;99719.75;;;6.31;100.00
13367;BME280;6752;52.612;13.630;2024-03-23T09:29:56;99721.23;;;6.27;100.00
13367;BME280;6752;52.612;13.630;2024-03-23T09:34:59;99726.84;;;6.48;100.00
13367;BME280;6752;52.612;13.630;2024-03-23T09:40:01;99726.80;;;6.39;100.00
13367;BME280;6752;52.612;13.630;2024-03-23T09:45:06;99721.49;;;6.35;100.00
13367;BME280;6752;52.612;13.630;2024-03-23T09:50:09;99721.72;;;6.68;100.00
13367;BME280;6752;52.612;13.630;2024-03-23T09:55:11;99727.55;;;6.69;100.00
13367;BME280;6752;52.612;13.630;2024-03-23T10:00:13;99729.45;;;6.61;100.00
13367;BME280;6752;52.612;13.630;2024-03-23T10:05:22;99752.55;;;6.29;100.00
13367;BME280;6752;52.612;13.630;2024-03-23T10:10:27;99750.58;;;6.27;100.00
13367;BME280;6752;52.612;13.630;2024-03-23T10:15:29;99774.18;;;6.07;100.00
13367;BME280;6752;52.612;13.630;2024-03-23T10:20:31;99772.91;;;6.35;100.00
13367;BME280;6752;52.612;13.630;2024-03-23T10:25:34;99792.47;;;6.18;100.00
13367;BME280;6752;52.612;13.630;2024-03-23T10:30:36;99794.23;;;6.18;100.00
13367;BME280;6752;52.612;13.630;2024-03-23T10:35:38;99785.09;;;6.16;100.00
13367;BME280;6752;52.612;13.630;2024-03-23T10:40:41;99792.00;;;5.85;100.00
13367;BME280;6752;52.612;13.630;2024-03-23T10:45:43;99798.86;;;5.85;100.00
13367;BME280;6752;52.612;13.630;2024-03-23T10:50:45;99802.41;;;6.27;100.00
13367;BME280;6752;52.612;13.630;2024-03-23T10:55:48;99805.02;;;6.28;100.00
13367;BME280;6752;52.612;13.630;2024-03-23T11:00:50;99808.88;;;6.26;100.00
13367;BME280;6752;52.612;13.630;2024-03-23T11:05:53;99798.76;;;6.53;100.00
13367;BME280;6752;52.612;13.630;2024-03-23T11:11:08;99807.94;;;6.27;100.00
13367;BME280;6752;52.612;13.630;2024-03-23T11:16:00;99828.50;;;6.60;100.00
13367;BME280;6752;52.612;13.630;2024-03-23T11:21:00;99834.86;;;6.34;100.00
13367;BME280;6752;52.612;13.630;2024-03-23T11:26:02;99815.80;;;6.60;100.00
13367;BME280;6752;52.612;13.630;2024-03-23T11:31:08;99808.97;;;7.05;100.00
13367;BME280;6752;52.612;13.630;2024-03-23T11:36:07;99814.70;;;6.52;100.00
13367;BME280;6752;52.612;13.630;2024-03-23T11:41:09;99813.14;;;6.51;100.00
13367;BME280;6752;52.612;13.630;2024-03-23T11:46:11;99809.02;;;6.99;100.00
13367;BME280;6752;52.612;13.630;2024-03-23T11:51:14;99814.91;;;6.51;100.00
13367;BME280;6752;52.612;13.630;2024-03-23T11:56:16;99825.93;;;7.50;100.00
13367;BME280;6752;52.612;13.630;2024-03-23T12:01:18;99834.36;;;7.27;100.00
13367;BME280;6752;52.612;13.630;2024-03-23T12:06:21;99826.56;;;7.24;100.00
13367;BME280;6752;52.612;13.630;2024-03-23T12:11:23;99813.17;;;7.54;100.00
13367;BME280;6752;52.612;13.630;2024-03-23T12:16:25;99804.73;;;7.53;100.00
13367;BME280;6752;52.612;13.630;2024-03-23T12:21:28;99793.22;;;8.10;100.00
13367;BME280;6752;52.612;13.630;2024-03-23T12:26:30;99810.03;;;8.10;100.00
13367;BME280;6752;52.612;13.630;2024-03-23T12:31:32;99815.78;;;7.98;100.00
13367;BME280;6752;52.612;13.630;2024-03-23T12:36:35;99810.87;;;8.10;100.00
13367;BME280;6752;52.612;13.630;2024-03-23T12:41:37;99798.18;;;8.22;100.00
13367;BME280;6752;52.612;13.630;2024-03-23T12:46:40;99787.32;;;8.35;100.00
13367;BME280;6752;52.612;13.630;2024-03-23T12:51:48;99786.23;;;8.69;100.00
13367;BME280;6752;52.612;13.630;2024-03-23T12:56:48;99788.68;;;8.59;100.00
13367;BME280;6752;52.612;13.630;2024-03-23T13:01:51;99789.16;;;9.13;100.00
13367;BME280;6752;52.612;13.630;2024-03-23T13:06:53;99789.30;;;8.76;100.00
13367;BME280;6752;52.612;13.630;2024-03-23T13:11:55;99791.62;;;8.87;100.00
13367;BME280;6752;52.612;13.630;2024-03-23T13:16:58;99788.73;;;8.86;100.00
13367;BME280;6752;52.612;13.630;2024-03-23T13:22:00;99783.38;;;9.71;100.00
13367;BME280;6752;52.612;13.630;2024-03-23T13:27:02;99788.90;;;9.29;100.00
13367;BME280;6752;52.612;13.630;2024-03-23T13:32:09;99795.41;;;9.34;100.00
13367;BME280;6752;52.612;13.630;2024-03-23T13:37:10;99798.04;;;9.46;100.00
13367;BME280;6752;52.612;13.630;2024-03-23T13:42:12;99790.47;;;9.78;97.22
13367;BME280;6752;52.612;13.630;2024-03-23T13:47:14;99778.45;;;10.71;93.16
13367;BME280;6752;52.612;13.630;2024-03-23T13:52:17;99771.84;;;11.21;88.51
13367;BME280;6752;52.612;13.630;2024-03-23T13:57:19;99785.98;;;11.35;86.92
13367;BME280;6752;52.612;13.630;2024-03-23T14:02:21;99783.11;;;11.77;86.95
13367;BME280;6752;52.612;13.630;2024-03-23T14:07:24;99779.89;;;10.62;86.31
13367;BME280;6752;52.612;13.630;2024-03-23T14:12:26;99775.44;;;10.65;88.23
13367;BME280;6752;52.612;13.630;2024-03-23T14:17:28;99798.13;;;10.27;88.17
13367;BME280;6752;52.612;13.630;2024-03-23T14:22:31;99804.03;;;10.90;87.19
13367;BME280;6752;52.612;13.630;2024-03-23T14:27:33;99823.58;;;10.33;87.56
13367;BME280;6752;52.612;13.630;2024-03-23T14:32:35;99911.45;;;7.78;92.96
13367;BME280;6752;52.612;13.630;2024-03-23T14:37:38;99890.41;;;6.75;100.00
13367;BME280;6752;52.612;13.630;2024-03-23T14:42:40;99900.10;;;5.99;100.00
13367;BME280;6752;52.612;13.630;2024-03-23T14:47:42;99898.44;;;5.98;100.00
13367;BME280;6752;52.612;13.630;2024-03-23T14:52:48;99895.41;;;5.51;100.00
13367;BME280;6752;52.612;13.630;2024-03-23T14:57:50;99894.07;;;5.97;100.00
13367;BME280;6752;52.612;13.630;2024-03-23T15:02:53;99896.42;;;6.13;100.00
13367;BME280;6752;52.612;13.630;2024-03-23T15:07:55;99871.80;;;6.38;100.00
13367;BME280;6752;52.612;13.630;2024-03-23T15:12:57;99820.39;;;7.26;100.00
13367;BME280;6752;52.612;13.630;2024-03-23T15:18:00;99843.37;;;7.49;100.00
13367;BME280;6752;52.612;13.630;2024-03-23T15:23:02;99858.05;;;7.66;100.00
13367;BME280;6752;52.612;13.630;2024-03-23T15:28:04;99849.55;;;7.93;100.00
13367;BME280;6752;52.612;13.630;2024-03-23T15:33:07;99840.35;;;7.94;100.00
13367;BME280;6752;52.612;13.630;2024-03-23T15:38:09;99817.01;;;8.72;100.00
13367;BME280;6752;52.612;13.630;2024-03-23T15:43:12;99812.02;;;8.63;100.00
13367;BME280;6752;52.612;13.630;2024-03-23T15:48:14;99813.25;;;9.24;100.00
13367;BME280;6752;52.612;13.630;2024-03-23T15:53:16;99799.02;;;8.95;100.00
13367;BME280;6752;52.612;13.630;2024-03-23T15:58:18;99797.25;;;8.13;100.00
13367;BME280;6752;52.612;13.630;2024-03-23T16:03:21;99788.88;;;8.15;100.00
13367;BME280;6752;52.612;13.630;2024-03-23T16:08:23;99780.58;;;8.86;100.00
13367;BME280;6752;52.612;13.630;2024-03-23T16:13:26;99779.98;;;8.17;100.00
13367;BME280;6752;52.612;13.630;2024-03-23T16:18:28;99764.79;;;7.94;100.00
13367;BME280;6752;52.612;13.630;2024-03-23T16:23:34;99765.27;;;8.25;100.00
13367;BME280;6752;52.612;13.630;2024-03-23T16:28:35;99765.14;;;8.25;100.00
13367;BME280;6752;52.612;13.630;2024-03-23T16:33:38;99763.84;;;7.95;100.00
13367;BME280;6752;52.612;13.630;2024-03-23T16:38:40;99755.70;;;8.40;100.00
13367;BME280;6752;52.612;13.630;2024-03-23T16:43:43;99742.36;;;8.39;100.00
13367;BME280;6752;52.612;13.630;2024-03-23T16:48:45;99743.66;;;8.24;100.00
13367;BME280;6752;52.612;13.630;2024-03-23T16:53:47;99750.83;;;8.18;100.00
13367;BME280;6752;52.612;13.630;2024-03-23T16:58:50;99753.87;;;8.10;100.00
13367;BME280;6752;52.612;13.630;2024-03-23T17:03:52;99745.38;;;7.94;100.00
13367;BME280;6752;52.612;13.630;2024-03-23T17:08:54;99760.46;;;7.90;100.00
13367;BME280;6752;52.612;13.630;2024-03-23T17:13:57;99761.20;;;7.61;100.00
13367;BME280;6752;52.612;13.630;2024-03-23T17:18:59;99765.03;;;7.62;100.00
13367;BME280;6752;52.612;13.630;2024-03-23T17:24:01;99768.77;;;7.64;100.00
13367;BME280;6752;52.612;13.630;2024-03-23T17:29:04;99777.70;;;7.56;100.00
13367;BME280;6752;52.612;13.630;2024-03-23T17:34:06;99787.84;;;7.42;100.00
13367;BME280;6752;52.612;13.630;2024-03-23T17:39:09;99783.52;;;7.38;100.00
13367;BME280;6752;52.612;13.630;2024-03-23T17:44:11;99790.29;;;7.38;100.00
13367;BME280;6752;52.612;13.630;2024-03-23T17:49:13;99797.63;;;7.34;100.00
13367;BME280;6752;52.612;13.630;2024-03-23T17:54:15;99805.64;;;7.35;100.00
13367;BME280;6752;52.612;13.630;2024-03-23T17:59:20;99811.68;;;7.21;100.00
13367;BME280;6752;52.612;13.630;2024-03-23T18:04:20;99823.19;;;7.16;100.00
13367;BME280;6752;52.612;13.630;2024-03-23T18:09:23;99829.49;;;7.10;100.00
13367;BME280;6752;52.612;13.630;2024-03-23T18:14:27;99822.44;;;7.18;100.00
13367;BME280;6752;52.612;13.630;2024-03-23T18:19:30;99834.61;;;7.22;100.00
13367;BME280;6752;52.612;13.630;2024-03-23T18:24:32;99843.52;;;7.29;100.00
13367;BME280;6752;52.612;13.630;2024-03-23T18:29:35;99857.56;;;7.32;100.00
13367;BME280;6752;52.612;13.630;2024-03-23T18:34:37;99895.16;;;7.06;100.00
13367;BME280;6752;52.612;13.630;2024-03-23T18:39:39;99888.59;;;6.59;100.00
13367;BME280;6752;52.612;13.630;2024-03-23T18:44:42;99886.55;;;6.52;100.00
13367;BME280;6752;52.612;13.630;2024-03-23T18:49:44;99884.38;;;6.48;100.00
13367;BME280;6752;52.612;13.630;2024-03-23T18:54:47;99875.32;;;6.48;100.00
13367;BME280;6752;52.612;13.630;2024-03-23T18:59:49;99867.47;;;6.56;100.00
13367;BME280;6752;52.612;13.630;2024-03-23T19:04:51;99867.70;;;6.51;100.00
13367;BME280;6752;52.612;13.630;2024-03-23T19:09:54;99878.89;;;6.42;100.00
13367;BME280;6752;52.612;13.630;2024-03-23T19:14:56;99874.69;;;6.49;100.00
13367;BME280;6752;52.612;13.630;2024-03-23T19:19:58;99876.98;;;6.49;100.00
13367;BME280;6752;52.612;13.630;2024-03-23T19:25:01;99879.94;;;6.41;100.00
13367;BME280;6752;52.612;13.630;2024-03-23T19:30:05;99879.20;;;6.43;100.00
13367;BME280;6752;52.612;13.630;2024-03-23T19:35:06;99879.53;;;6.31;100.00
13367;BME280;6752;52.612;13.630;2024-03-23T19:40:09;99878.25;;;6.37;100.00
13367;BME280;6752;52.612;13.630;2024-03-23T19:45:11;99879.27;;;6.17;100.00
13367;BME280;6752;52.612;13.630;2024-03-23T19:50:14;99882.59;;;6.12;100.00
13367;BME280;6752;52.612;13.630;2024-03-23T19:55:16;99864.69;;;6.21;100.00
13367;BME280;6752;52.612;13.630;2024-03-23T20:00:18;99866.23;;;6.23;100.00
13367;BME280;6752;52.612;13.630;2024-03-23T20:05:21;99870.52;;;6.18;100.00
13367;BME280;6752;52.612;13.630;2024-03-23T20:10:24;99869.57;;;6.21;100.00
13367;BME280;6752;52.612;13.630;2024-03-23T20:15:26;99859.49;;;6.09;100.00
13367;BME280;6752;52.612;13.630;2024-03-23T20:20:29;99868.05;;;5.90;100.00
13367;BME280;6752;52.612;13.630;2024-03-23T20:25:31;99868.97;;;5.83;100.00
13367;BME280;6752;52.612;13.630;2024-03-23T20:30:38;99873.24;;;5.65;100.00
13367;BME280;6752;52.612;13.630;2024-03-23T20:35:46;99863.06;;;5.74;100.00
13367;BME280;6752;52.612;13.630;2024-03-23T20:40:56;99867.10;;;5.67;100.00
13367;BME280;6752;52.612;13.630;2024-03-23T20:46:02;99867.86;;;5.48;100.00
13367;BME280;6752;52.612;13.630;2024-03-23T20:51:03;99871.67;;;5.37;100.00
13367;BME280;6752;52.612;13.630;2024-03-23T20:56:05;99872.82;;;5.35;100.00
13367;BME280;6752;52.612;13.630;2024-03-23T21:01:08;99874.14;;;5.18;100.00
13367;BME280;6752;52.612;13.630;2024-03-23T21:06:10;99871.99;;;5.31;100.00
13367;BME280;6752;52.612;13.630;2024-03-23T21:11:13;99863.13;;;5.20;100.00
13367;BME280;6752;52.612;13.630;2024-03-23T21:16:17;99865.13;;;5.38;100.00
13367;BME280;6752;52.612;13.630;2024-03-23T21:21:20;99867.38;;;5.18;100.00
13367;BME280;6752;52.612;13.630;2024-03-23T21:26:23;99854.18;;;5.00;100.00
13367;BME280;6752;52.612;13.630;2024-03-23T21:31:25;99857.75;;;5.23;100.00
13367;BME280;6752;52.612;13.630;2024-03-23T21:36:28;99855.64;;;5.05;100.00
13367;BME280;6752;52.612;13.630;2024-03-23T21:41:36;99860.38;;;4.93;100.00
13367;BME280;6752;52.612;13.630;2024-03-23T21:46:38;99856.41;;;4.80;100.00
13367;BME280;6752;52.612;13.630;2024-03-23T21:51:41;99852.89;;;4.86;100.00
13367;BME280;6752;52.612;13.630;2024-03-23T21:56:43;99847.42;;;4.66;100.00
13367;BME280;6752;52.612;13.630;2024-03-23T22:01:45;99838.55;;;4.78;100.00
13367;BME280;6752;52.612;13.630;2024-03-23T22:06:48;99832.53;;;4.83;100.00
13367;BME280;6752;52.612;13.630;2024-03-23T22:11:50;99826.67;;;4.73;100.00
13367;BME280;6752;52.612;13.630;2024-03-23T22:16:52;99820.48;;;4.82;100.00
13367;BME280;6752;52.612;13.630;2024-03-23T22:21:55;99817.69;;;4.86;100.00
13367;BME280;6752;52.612;13.630;2024-03-23T22:26:57;99817.16;;;4.77;100.00
13367;BME280;6752;52.612;13.630;2024-03-23T22:31:59;99816.95;;;4.78;100.00
13367;BME280;6752;52.612;13.630;2024-03-23T22:37:02;99814.97;;;4.76;100.00
13367;BME280;6752;52.612;13.630;2024-03-23T22:42:04;99799.72;;;4.83;100.00
13367;BME280;6752;52.612;13.630;2024-03-23T22:47:06;99802.63;;;4.85;100.00
13367;BME280;6752;52.612;13.630;2024-03-23T22:52:09;99795.14;;;4.77;100.00
13367;BME280;6752;52.612;13.630;2024-03-23T22:57:11;99803.03;;;4.75;100.00
13367;BME280;6752;52.612;13.630;2024-03-23T23:02:13;99805.38;;;4.67;100.00
13367;BME280;6752;52.612;13.630;2024-03-23T23:07:16;99804.49;;;4.81;100.00
13367;BME280;6752;52.612;13.630;2024-03-23T23:12:18;99796.80;;;4.78;100.00
13367;BME280;6752;52.612;13.630;2024-03-23T23:17:20;99792.08;;;4.56;100.00
13367;BME280;6752;52.612;13.630;2024-03-23T23:22:23;99793.86;;;4.66;100.00
13367;BME280;6752;52.612;13.630;2024-03-23T23:27:25;99790.78;;;4.45;100.00
13367;BME280;6752;52.612;13.630;2024-03-23T23:32:28;99788.96;;;4.56;100.00
13367;BME280;6752;52.612;13.630;2024-03-23T23:37:32;99784.09;;;4.55;100.00
13367;BME280;6752;52.612;13.630;2024-03-23T23:42:34;99787.41;;;4.60;100.00
13367;BME280;6752;52.612;13.630;2024-03-23T23:47:37;99777.56;;;4.67;100.00
13367;BME280;6752;52.612;13.630;2024-03-23T23:52:39;99785.39;;;4.48;100.00
13367;BME280;6752;52.612;13.630;2024-03-23T23:57:41;99772.98;;;4.57;100.00
